CheckWX is a tool to help pilots better visualize weather data.  It is not intended as a substitute for an official pre-flight weather briefing.

06:55:12 UTC

KSNY TAF
Sidney Municipal / Lloyd W Carr Field Airport
Sidney, Nebraska, USA
KSNY 160520Z 1606/1706 13007KT P6SM SCT100 FM161500 14013KT P6SM BKN100 FM161900 17014KT P6SM -SHRA VCTS BKN060CB FM170200 10010KT P6SM SCT008 BKN040

Jun-16@
06:00 UTC

Jun-16 @ 06:00 UTC

Jun-16@
15:00 UTC

Jun-16 @ 15:00 UTC

KSNY 160520Z 1606/1706 13007KT P6SM SCT100
Wind
  • 130° at 7 KTS
Cloud Levels
  • Scattered at 10,000' AGL

Jun-16@
15:00 UTC

Jun-16 @ 15:00 UTC

Jun-16@
19:00 UTC

Jun-16 @ 19:00 UTC

FM161500 14013KT P6SM BKN100

From

From Standard forecast or significant change

Wind
  • 140° at 13 KTS
Cloud Levels
  • Broken at 10,000' AGL

Jun-16@
19:00 UTC

Jun-16 @ 19:00 UTC

Jun-17@
02:00 UTC

Jun-17 @ 02:00 UTC

FM161900 17014KT P6SM -SHRA VCTS BKN060CB

From

From Standard forecast or significant change

Wind
  • 170° at 14 KTS
Conditions
Light Rain, Area Thunderstorm
Cloud Levels
  • Broken at 6,000' AGL

Jun-17@
02:00 UTC

Jun-17 @ 02:00 UTC

Jun-17@
06:00 UTC

Jun-17 @ 06:00 UTC

FM170200 10010KT P6SM SCT008 BKN040

From

From Standard forecast or significant change

Wind
  • 100° at 10 KTS
Cloud Levels
  • Scattered at 800' AGL
  • Broken at 4,000' AGL